Архив погоды на Мысе Терпения

Метеограмма Мыс Терпения
Вторник, 19 Июня
Время местн. Темп Ветер Видим Явления Облачность нижн/средн/верх Атм. давл. Влжн Точка росы ВНГО R Сост. почвы Tg s
Напр Скр Прв ур.ст ур.м изм
07:00 +5.5° Ю 6 8 0.2 км туман неба не видно 758 759 0 97% +5° - 0 Влажная (без луж) - -
04:00 +5° Ю 6 9 200 м туман неба не видно 758 759 -0.1 96% +4.4° - - - - -
Понедельник, 18 Июня
Время местн. Темп Ветер Видим Явления Облачность нижн/средн/верх Атм. давл. Влжн Точка росы ВНГО R Сост. почвы Tg s
Напр Скр Прв ур.ст ур.м изм
22:00 +5.1° Ю 7 10 500 м туман неба не видно 759 759 +0.5 96% +4.5° - - - - -
19:00 +4.9° Ю 7 11 200 м туман {ливневые осадки} неба не видно 758 759 -0.1 96% +4.3° - 0.5 - - -
16:00 +5.2° В,С-В 8 11 500 м слабый ливневый дождь неба не видно 758 759 -0.4 99% +5° - - - - -
13:00 +5.1° Ю 7 11 2 км слабый ливневый дождь облачно 758 759 -0.5 95% +4.4° 1 км - - - -
10:00 +4.9° Ю 8 11 2 км слабый ливневый дождь облачно 759 759 -0.5 95% +4.1° 1 км - - - -
07:00 +4.6° Ю 7 9 2 км слабый ливневый дождь {снег} облачно 759 760 +0.1 95% +3.8° 1 км 2 Влажная (без луж) - -
04:00 +4.4° Ю 7 11 4 км ливневый дождь облачно 759 760 -0.7 95% +3.6° 1 км - - - -
Воскресенье, 17 Июня
Время местн. Темп Ветер Видим Явления Облачность нижн/средн/верх Атм. давл. Влжн Точка росы ВНГО R Сост. почвы Tg s
Напр Скр Прв ур.ст ур.м изм
22:00 +4.5° Ю 7 9 4 км дымка облачно 761 761 0 94% +3.6° 1 км - - - -
19:00 +4.6° Ю 5 7 20 км - облачно 761 761 -0.5 91% +3.2° 1 км 0 - - -
16:00 +5.4° Ю 6 8 20 км - облачно 761 762 -0.8 80% +2.2° 1 км - - - -
13:00 +4.8° Ю 6 8 20 км - облачно 762 762 -0.2 81% +1.8° 1 км - - - -
10:00 +4.5° Ю 5 7 20 км - облачно 762 763 -0.2 81% +1.5° 1 км - - - -
07:00 +3.7° Ю 5 9 20 км - облачно 762 763 +0.1 84% +1.3° 1 км 0 Влажная (без луж) +3° -
04:00 +3.6° Ю,Ю-З 6 10 20 км - облачно 762 763 -0.4 84% +1.1° 1 км - - - -
Суббота, 16 Июня
Время местн. Темп Ветер Видим Явления Облачность нижн/средн/верх Атм. давл. Влжн Точка росы ВНГО R Сост. почвы Tg s
Напр Скр Прв ур.ст ур.м изм
22:00 +3.2° Ю 5 9 20 км - облачно 763 764 0 89% +1.6° 1 км - - - -
19:00 +3.8° Ю 3 7 20 км - облачно 763 764 -0.7 87% +1.8° 1 км 0 - - -
16:00 +4.3° Ю 4 6 20 км - облачно 764 764 -0.7 82% +1.5° 1 км - - - -
13:00 +4.4° Ю 3 5 20 км - облачно 764 765 -0.7 81% +1.5° 1 км - - - -
10:00 +3.1° Ю-З 3 5 20 км - облачно 765 765 -0.4 85% +0.9° 1 км - - - -
07:00 +2.4° З,Ю-З 3 5 20 км - облачно 765 766 -0.4 91% +1.1° 1 км 0 Сухая (без трещин) +3° -
04:00 +2.3° З 2 3 20 км - облачно 766 766 +0.1 90% +0.8° 1 км - - - -
Пятница, 15 Июня
Время местн. Темп Ветер Видим Явления Облачность нижн/средн/верх Атм. давл. Влжн Точка росы ВНГО R Сост. почвы Tg s
Напр Скр Прв ур.ст ур.м изм
22:00 +3.2° Ю 1 2 20 км - облачно 767 767 +0.2 85% +0.9° 1 км - - - -
19:00 +4.1° В,С-В 1 3 20 км - облачно 766 767 -0.3 82% +1.3° 1 км 0 - - -
16:00 +4.2° С,С-В 2 5 20 км - облачно 767 767 +0.1 87% +2.2° 1 км - - - -